createdAt,value
2017-10-18T00:00:01.951Z,0
2017-10-18T00:00:42.407Z,0
2017-10-18T00:01:22.853Z,0
2017-10-18T00:02:03.306Z,0
2017-10-18T00:02:43.749Z,0
2017-10-18T00:03:24.212Z,0
2017-10-18T00:04:04.658Z,0
2017-10-18T00:04:45.121Z,0
2017-10-18T00:05:25.580Z,0
2017-10-18T00:06:06.034Z,0
2017-10-18T00:06:46.491Z,0
2017-10-18T00:07:26.936Z,0
2017-10-18T00:08:07.392Z,0
2017-10-18T00:08:47.847Z,0
2017-10-18T00:09:28.313Z,0
2017-10-18T00:10:08.768Z,0
2017-10-18T00:10:49.233Z,0
2017-10-18T00:11:29.692Z,0
2017-10-18T00:12:10.138Z,0
2017-10-18T00:12:50.579Z,0
2017-10-18T00:13:31.023Z,0
2017-10-18T00:14:11.474Z,0
2017-10-18T00:14:51.936Z,0
2017-10-18T00:15:32.396Z,0
2017-10-18T00:16:12.855Z,0
2017-10-18T00:16:53.303Z,0
2017-10-18T00:17:33.762Z,0
2017-10-18T00:18:14.210Z,0
2017-10-18T00:18:54.667Z,0
2017-10-18T00:19:35.132Z,0
2017-10-18T00:20:15.588Z,0
2017-10-18T00:20:56.055Z,0
2017-10-18T00:21:36.509Z,0
2017-10-18T00:22:16.966Z,0
2017-10-18T00:22:57.432Z,0
2017-10-18T00:23:37.888Z,0
2017-10-18T00:24:18.347Z,0
2017-10-18T00:24:58.798Z,0
2017-10-18T00:25:39.253Z,0
2017-10-18T00:26:19.714Z,0
2017-10-18T00:27:00.176Z,0
2017-10-18T00:27:40.642Z,0
2017-10-18T00:28:21.095Z,0
2017-10-18T00:29:01.549Z,0
2017-10-18T00:29:42.004Z,0
2017-10-18T00:30:22.454Z,0
2017-10-18T00:31:02.908Z,0
2017-10-18T00:31:43.356Z,0
2017-10-18T00:32:23.814Z,0
2017-10-18T00:33:04.258Z,0
2017-10-18T00:33:44.722Z,0
2017-10-18T00:34:25.174Z,0
2017-10-18T00:35:05.638Z,0
2017-10-18T00:35:46.097Z,0
2017-10-18T00:36:26.543Z,0
2017-10-18T00:37:06.999Z,0
2017-10-18T00:37:47.448Z,0
2017-10-18T00:38:27.900Z,0
2017-10-18T00:39:08.368Z,0
2017-10-18T00:39:48.812Z,0
2017-10-18T00:40:29.264Z,0
2017-10-18T00:41:09.720Z,0
2017-10-18T00:41:50.173Z,0
2017-10-18T00:42:30.626Z,0
2017-10-18T00:43:11.087Z,0
2017-10-18T00:43:51.541Z,0
2017-10-18T00:44:31.991Z,0
2017-10-18T00:45:12.436Z,0
2017-10-18T00:45:52.901Z,0
2017-10-18T00:46:33.345Z,0
2017-10-18T00:47:13.795Z,0
2017-10-18T00:47:54.245Z,0
2017-10-18T00:48:34.707Z,0
2017-10-18T00:49:15.183Z,0
2017-10-18T00:49:55.630Z,0
2017-10-18T00:50:36.087Z,0
2017-10-18T00:51:16.534Z,0
2017-10-18T00:51:56.998Z,0
2017-10-18T00:52:37.473Z,0
2017-10-18T00:53:17.926Z,0
2017-10-18T00:53:58.385Z,0
2017-10-18T00:54:38.845Z,0
2017-10-18T00:55:19.294Z,0
2017-10-18T00:55:59.744Z,0
2017-10-18T00:56:40.206Z,0
2017-10-18T00:57:20.659Z,0
2017-10-18T00:58:01.115Z,0
2017-10-18T00:58:41.578Z,0
2017-10-18T00:59:22.032Z,0
2017-10-18T01:00:02.482Z,0
2017-10-18T01:00:42.944Z,0
2017-10-18T01:01:23.402Z,0
2017-10-18T01:02:03.854Z,0
2017-10-18T01:02:44.311Z,0
2017-10-18T01:03:24.769Z,0
2017-10-18T01:04:05.249Z,0
2017-10-18T01:04:45.689Z,0
2017-10-18T01:05:26.144Z,0
2017-10-18T01:06:06.606Z,0
2017-10-18T01:06:47.065Z,0
2017-10-18T01:07:27.531Z,0
2017-10-18T01:08:07.980Z,0
2017-10-18T01:08:48.432Z,0
2017-10-18T01:09:28.897Z,0
2017-10-18T01:10:09.355Z,0
2017-10-18T01:10:49.810Z,0
2017-10-18T01:11:30.265Z,0
2017-10-18T01:12:10.724Z,0
2017-10-18T01:12:51.181Z,0
2017-10-18T01:13:31.645Z,0
2017-10-18T01:14:12.097Z,0
2017-10-18T01:14:52.562Z,0
2017-10-18T01:15:33.018Z,0
2017-10-18T01:16:13.469Z,0
2017-10-18T01:16:53.932Z,0
2017-10-18T01:17:34.387Z,0
2017-10-18T01:18:14.841Z,0
2017-10-18T01:18:55.312Z,0
2017-10-18T01:19:35.770Z,0
2017-10-18T01:20:16.204Z,0
2017-10-18T01:20:56.658Z,0
2017-10-18T01:21:37.104Z,0
2017-10-18T01:22:17.560Z,0
2017-10-18T01:22:58.030Z,0
2017-10-18T01:23:38.490Z,0
2017-10-18T01:24:18.951Z,0
2017-10-18T01:24:59.412Z,0
2017-10-18T01:25:39.869Z,0
2017-10-18T01:26:20.329Z,0
2017-10-18T01:27:00.778Z,0
2017-10-18T01:27:41.230Z,0
2017-10-18T01:28:21.683Z,0
2017-10-18T01:29:02.144Z,0
2017-10-18T01:29:42.609Z,0
2017-10-18T01:30:23.066Z,0
2017-10-18T01:31:03.513Z,0
2017-10-18T01:31:43.971Z,0
2017-10-18T01:32:24.426Z,0
2017-10-18T01:33:04.886Z,0
2017-10-18T01:33:45.339Z,0
2017-10-18T01:34:25.787Z,0
2017-10-18T01:35:06.234Z,0
2017-10-18T01:35:46.677Z,0
2017-10-18T01:36:27.132Z,0
2017-10-18T01:37:07.581Z,0
2017-10-18T01:37:48.047Z,0
2017-10-18T01:38:28.507Z,0
2017-10-18T01:39:08.971Z,0
2017-10-18T01:39:49.414Z,0
2017-10-18T01:40:29.862Z,0
2017-10-18T01:41:10.309Z,0
2017-10-18T01:41:50.782Z,0
2017-10-18T01:42:31.222Z,0
2017-10-18T01:43:11.673Z,0
2017-10-18T01:43:52.140Z,0
2017-10-18T01:44:32.584Z,0
2017-10-18T01:45:13.039Z,0
2017-10-18T01:45:53.494Z,0
2017-10-18T01:46:33.950Z,0
2017-10-18T01:47:14.401Z,0
2017-10-18T01:47:54.853Z,0
2017-10-18T01:48:35.310Z,0
2017-10-18T01:49:15.766Z,0
2017-10-18T01:49:56.222Z,0
2017-10-18T01:50:36.692Z,0
2017-10-18T01:51:17.147Z,0
2017-10-18T01:51:57.609Z,0
2017-10-18T01:52:38.057Z,0
2017-10-18T01:53:18.513Z,0
2017-10-18T01:53:58.964Z,0
2017-10-18T01:54:39.416Z,0
2017-10-18T01:55:19.875Z,0
2017-10-18T01:56:00.327Z,0
2017-10-18T01:56:40.781Z,0
2017-10-18T01:57:21.237Z,0
2017-10-18T01:58:01.686Z,0
2017-10-18T01:58:42.153Z,0
2017-10-18T01:59:22.596Z,0
2017-10-18T02:00:03.047Z,0
2017-10-18T02:00:43.497Z,0
2017-10-18T02:01:23.959Z,0
2017-10-18T02:02:04.415Z,0
2017-10-18T02:02:44.885Z,0
2017-10-18T02:03:25.344Z,0
2017-10-18T02:04:05.804Z,0
2017-10-18T02:04:46.253Z,0
2017-10-18T02:05:26.710Z,0
2017-10-18T02:06:07.169Z,0
2017-10-18T02:06:47.627Z,0
2017-10-18T02:07:28.089Z,0
2017-10-18T02:08:08.543Z,0
2017-10-18T02:08:48.979Z,0
2017-10-18T02:09:29.426Z,0
2017-10-18T02:10:09.881Z,0
2017-10-18T02:10:50.348Z,0
2017-10-18T02:11:30.788Z,0
2017-10-18T02:12:11.238Z,0
2017-10-18T02:12:51.687Z,0
2017-10-18T02:13:32.149Z,0
2017-10-18T02:14:12.600Z,0
2017-10-18T02:14:53.056Z,0
2017-10-18T02:15:33.521Z,0
2017-10-18T02:16:13.980Z,0
2017-10-18T02:16:54.444Z,0
2017-10-18T02:17:34.893Z,0
2017-10-18T02:18:15.378Z,0
2017-10-18T02:18:55.821Z,0
2017-10-18T02:19:36.276Z,0
2017-10-18T02:20:16.772Z,0
2017-10-18T02:20:57.206Z,0
2017-10-18T02:21:37.654Z,0
2017-10-18T02:22:18.113Z,0
2017-10-18T02:22:58.564Z,0
2017-10-18T02:23:39.024Z,0
2017-10-18T02:24:19.478Z,0
2017-10-18T02:24:59.941Z,0
2017-10-18T02:25:40.397Z,0
2017-10-18T02:26:20.862Z,0
2017-10-18T02:27:01.315Z,0
2017-10-18T02:27:41.775Z,0
2017-10-18T02:28:22.215Z,0
2017-10-18T02:29:02.681Z,0
2017-10-18T02:29:43.132Z,0
2017-10-18T02:30:23.596Z,0
2017-10-18T02:31:04.055Z,0
2017-10-18T02:31:44.501Z,0
2017-10-18T02:32:24.958Z,0
2017-10-18T02:33:05.411Z,0
2017-10-18T02:33:45.869Z,0
2017-10-18T02:34:26.320Z,0
2017-10-18T02:35:06.774Z,0
2017-10-18T02:35:47.236Z,0
2017-10-18T02:36:27.691Z,0
2017-10-18T02:37:08.159Z,0
2017-10-18T02:37:48.622Z,0
2017-10-18T02:38:29.061Z,0
2017-10-18T02:39:09.509Z,0
2017-10-18T02:39:49.966Z,0
2017-10-18T02:40:30.426Z,0
2017-10-18T02:41:10.883Z,0
2017-10-18T02:41:51.348Z,0
2017-10-18T02:42:31.800Z,0
2017-10-18T02:43:12.267Z,0
2017-10-18T02:43:52.718Z,0
2017-10-18T02:44:33.166Z,0
2017-10-18T02:45:13.611Z,0
2017-10-18T02:45:54.076Z,0
2017-10-18T02:46:34.526Z,0
2017-10-18T02:47:14.972Z,0
2017-10-18T02:47:55.435Z,0
2017-10-18T02:48:35.887Z,0
2017-10-18T02:49:16.345Z,0
2017-10-18T02:49:56.801Z,0
2017-10-18T02:50:37.262Z,0
2017-10-18T02:51:17.712Z,0
2017-10-18T02:51:58.168Z,0
2017-10-18T02:52:38.631Z,0
2017-10-18T02:53:19.099Z,0
2017-10-18T02:53:59.564Z,0
2017-10-18T02:54:40.024Z,0
2017-10-18T02:55:20.488Z,0
2017-10-18T02:56:00.912Z,0
2017-10-18T02:56:41.362Z,0
2017-10-18T02:57:21.817Z,0
2017-10-18T02:58:02.272Z,0
2017-10-18T02:58:42.711Z,0
2017-10-18T02:59:23.169Z,0
2017-10-18T03:00:03.629Z,0
2017-10-18T03:00:44.088Z,0
2017-10-18T03:01:24.551Z,0
2017-10-18T03:02:05.014Z,0
2017-10-18T03:02:45.460Z,0
2017-10-18T03:03:25.911Z,0
2017-10-18T03:04:06.394Z,0
2017-10-18T03:04:46.842Z,0
2017-10-18T03:05:27.294Z,0
2017-10-18T03:06:07.745Z,0
2017-10-18T03:06:48.201Z,0
2017-10-18T03:07:28.659Z,0
2017-10-18T03:08:09.118Z,0
2017-10-18T03:08:49.574Z,0
2017-10-18T03:09:30.028Z,0
2017-10-18T03:10:10.484Z,0
2017-10-18T03:10:50.938Z,0
2017-10-18T03:11:31.401Z,0
2017-10-18T03:12:11.840Z,0
2017-10-18T03:12:52.305Z,0
2017-10-18T03:13:32.757Z,0
2017-10-18T03:14:13.214Z,0
2017-10-18T03:14:53.684Z,0
2017-10-18T03:15:34.135Z,0
2017-10-18T03:16:14.585Z,0
2017-10-18T03:16:55.047Z,0
2017-10-18T03:17:35.492Z,0
2017-10-18T03:18:15.940Z,0
2017-10-18T03:18:56.405Z,0
2017-10-18T03:19:36.853Z,0
2017-10-18T03:20:17.308Z,0
2017-10-18T03:20:57.777Z,0
2017-10-18T03:21:38.227Z,0
2017-10-18T03:22:18.673Z,0
2017-10-18T03:22:59.136Z,0
2017-10-18T03:23:39.583Z,0
2017-10-18T03:24:20.034Z,0
2017-10-18T03:25:00.487Z,0
2017-10-18T03:25:40.941Z,0
2017-10-18T03:26:21.400Z,0
2017-10-18T03:27:01.846Z,0
2017-10-18T03:27:42.292Z,0
2017-10-18T03:28:22.748Z,0
2017-10-18T03:29:03.209Z,0
2017-10-18T03:29:43.661Z,0
2017-10-18T03:30:24.120Z,0
2017-10-18T03:31:04.575Z,0
2017-10-18T03:31:45.027Z,0
2017-10-18T03:32:25.473Z,0
2017-10-18T03:33:05.935Z,4
2017-10-18T03:33:46.387Z,4
2017-10-18T03:34:26.839Z,4
2017-10-18T03:35:07.288Z,4
2017-10-18T03:35:47.746Z,4
2017-10-18T03:36:28.209Z,4
2017-10-18T03:37:08.661Z,4
2017-10-18T03:37:49.117Z,4
2017-10-18T03:38:29.593Z,4
2017-10-18T03:39:10.041Z,4
2017-10-18T03:39:50.504Z,4
2017-10-18T03:40:30.958Z,4
2017-10-18T03:41:11.399Z,4
2017-10-18T03:41:51.861Z,4
2017-10-18T03:42:32.317Z,4
2017-10-18T03:43:12.791Z,4
2017-10-18T03:43:53.247Z,4
2017-10-18T03:44:33.721Z,4
2017-10-18T03:45:14.172Z,4
2017-10-18T03:45:54.627Z,4
2017-10-18T03:46:35.091Z,4
2017-10-18T03:47:15.558Z,0
2017-10-18T03:47:56.023Z,0
2017-10-18T03:48:36.493Z,0
2017-10-18T03:49:16.903Z,12
2017-10-18T03:49:57.358Z,16
2017-10-18T03:50:37.827Z,16
2017-10-18T03:51:18.284Z,16
2017-10-18T03:51:58.732Z,16
2017-10-18T03:52:39.189Z,20
2017-10-18T03:53:19.637Z,0
2017-10-18T03:54:00.117Z,0
2017-10-18T03:54:40.561Z,0
2017-10-18T03:55:21.025Z,0
2017-10-18T03:56:01.482Z,0
2017-10-18T03:56:41.937Z,0
2017-10-18T03:57:22.390Z,0
2017-10-18T03:58:02.844Z,0
2017-10-18T03:58:43.299Z,0
2017-10-18T03:59:23.736Z,0
2017-10-18T04:00:04.183Z,0
2017-10-18T04:00:44.629Z,0
2017-10-18T04:01:25.468Z,0
2017-10-18T04:02:05.890Z,0
2017-10-18T04:02:46.352Z,0
2017-10-18T04:03:26.815Z,0
2017-10-18T04:04:07.274Z,0
2017-10-18T04:04:47.724Z,0
2017-10-18T04:05:28.173Z,0
2017-10-18T04:06:08.635Z,0
2017-10-18T04:06:49.076Z,0
2017-10-18T04:07:29.525Z,0
2017-10-18T04:08:09.981Z,0
2017-10-18T04:08:50.470Z,0
2017-10-18T04:09:30.908Z,0
2017-10-18T04:10:11.360Z,0
2017-10-18T04:10:51.828Z,0
2017-10-18T04:11:32.272Z,0
2017-10-18T04:12:12.715Z,0
2017-10-18T04:12:53.182Z,0
2017-10-18T04:13:33.641Z,0
2017-10-18T04:14:14.113Z,0
2017-10-18T04:14:54.568Z,0
2017-10-18T04:15:35.021Z,0
2017-10-18T04:16:15.476Z,0
2017-10-18T04:16:55.925Z,0
2017-10-18T04:17:36.371Z,0
2017-10-18T04:18:16.828Z,0
2017-10-18T04:18:57.285Z,0
2017-10-18T04:19:37.737Z,0
2017-10-18T04:20:18.190Z,0
2017-10-18T04:20:58.652Z,0
2017-10-18T04:21:39.138Z,0
2017-10-18T04:22:19.591Z,0
2017-10-18T04:23:00.037Z,0
2017-10-18T04:23:40.477Z,0
2017-10-18T04:24:20.933Z,0
2017-10-18T04:25:01.394Z,0
2017-10-18T04:25:41.846Z,0
2017-10-18T04:26:22.307Z,0
2017-10-18T04:27:02.771Z,0
2017-10-18T04:27:43.228Z,0
2017-10-18T04:28:23.673Z,0
2017-10-18T04:29:04.124Z,0
2017-10-18T04:29:44.582Z,0
2017-10-18T04:30:25.048Z,0
2017-10-18T04:31:05.496Z,0
2017-10-18T04:31:45.942Z,0
2017-10-18T04:32:26.426Z,0
2017-10-18T04:33:06.872Z,0
2017-10-18T04:33:47.327Z,0
2017-10-18T04:34:27.774Z,0
2017-10-18T04:35:08.262Z,0
2017-10-18T04:35:48.720Z,0
2017-10-18T04:36:29.169Z,0
2017-10-18T04:37:09.633Z,0
2017-10-18T04:37:50.085Z,0
2017-10-18T04:38:30.541Z,0
2017-10-18T04:39:11.010Z,0
2017-10-18T04:39:51.454Z,0
2017-10-18T04:40:31.901Z,0
2017-10-18T04:41:12.349Z,0
2017-10-18T04:41:52.797Z,0
2017-10-18T04:42:33.259Z,0
2017-10-18T04:43:13.712Z,0
2017-10-18T04:43:54.182Z,0
2017-10-18T04:44:34.641Z,0
2017-10-18T04:45:15.096Z,0
2017-10-18T04:45:55.551Z,0
2017-10-18T04:46:36.005Z,0
2017-10-18T04:47:16.470Z,0
2017-10-18T04:47:56.927Z,0
2017-10-18T04:48:37.374Z,0
2017-10-18T04:49:17.842Z,0
2017-10-18T04:49:58.289Z,0
2017-10-18T04:50:38.743Z,0
2017-10-18T04:51:19.188Z,0
2017-10-18T04:51:59.639Z,0
2017-10-18T04:52:40.093Z,0
2017-10-18T04:53:20.552Z,0
2017-10-18T04:54:01.009Z,0
2017-10-18T04:54:41.476Z,0
2017-10-18T04:55:21.948Z,0
2017-10-18T04:56:02.392Z,0
2017-10-18T04:56:42.836Z,0
2017-10-18T04:57:23.291Z,0
2017-10-18T04:58:03.728Z,0
2017-10-18T04:58:44.176Z,0
2017-10-18T04:59:24.623Z,0
2017-10-18T05:00:05.076Z,0
2017-10-18T05:00:45.533Z,0
2017-10-18T05:01:25.988Z,0
2017-10-18T05:02:06.434Z,0
2017-10-18T05:02:46.900Z,0
2017-10-18T05:03:27.376Z,0
2017-10-18T05:04:07.808Z,0
2017-10-18T05:04:48.265Z,0
2017-10-18T05:05:28.723Z,0
2017-10-18T05:06:09.177Z,0
2017-10-18T05:06:49.627Z,0
2017-10-18T05:07:30.084Z,0
2017-10-18T05:08:10.548Z,0
2017-10-18T05:08:51.000Z,0
2017-10-18T05:09:31.460Z,0
2017-10-18T05:10:11.918Z,0
2017-10-18T05:10:52.368Z,0
2017-10-18T05:11:32.800Z,0
2017-10-18T05:12:13.245Z,0
2017-10-18T05:12:53.693Z,0
2017-10-18T05:13:34.142Z,0
2017-10-18T05:14:14.605Z,0
2017-10-18T05:14:55.050Z,0
2017-10-18T05:15:35.500Z,0
2017-10-18T05:16:15.954Z,0
2017-10-18T05:16:56.424Z,0
2017-10-18T05:17:36.879Z,0
2017-10-18T05:18:17.333Z,0
2017-10-18T05:18:57.790Z,0
2017-10-18T05:19:38.241Z,0
2017-10-18T05:20:18.685Z,0
2017-10-18T05:20:59.139Z,0
2017-10-18T05:21:39.592Z,0
2017-10-18T05:22:20.046Z,0
2017-10-18T05:23:00.509Z,0
2017-10-18T05:23:40.962Z,0
2017-10-18T05:24:21.412Z,0
2017-10-18T05:25:01.861Z,0
2017-10-18T05:25:42.325Z,0
2017-10-18T05:26:22.779Z,0
2017-10-18T05:27:03.223Z,0
2017-10-18T05:27:43.670Z,0
2017-10-18T05:28:24.134Z,0
2017-10-18T05:29:04.578Z,0
2017-10-18T05:29:45.032Z,0
2017-10-18T05:30:25.488Z,0
2017-10-18T05:31:05.960Z,0
2017-10-18T05:31:46.407Z,0
2017-10-18T05:32:26.862Z,0
2017-10-18T05:33:07.330Z,4
2017-10-18T05:33:47.770Z,4
2017-10-18T05:34:28.245Z,4
2017-10-18T05:35:08.666Z,4
2017-10-18T05:35:49.120Z,0
2017-10-18T05:36:29.580Z,4
2017-10-18T05:37:10.032Z,4
2017-10-18T05:37:50.485Z,4
2017-10-18T05:38:30.936Z,4
2017-10-18T05:39:11.398Z,4
2017-10-18T05:39:51.862Z,4
2017-10-18T05:40:32.315Z,8
2017-10-18T05:41:12.772Z,8
2017-10-18T05:41:53.227Z,8
2017-10-18T05:42:33.680Z,8
2017-10-18T05:43:14.146Z,8
2017-10-18T05:43:54.600Z,8
2017-10-18T05:44:35.043Z,12
2017-10-18T05:45:15.500Z,12
2017-10-18T05:45:55.959Z,12
2017-10-18T05:46:36.401Z,12
2017-10-18T05:47:16.851Z,12
2017-10-18T05:47:57.295Z,16
2017-10-18T05:48:37.755Z,16
2017-10-18T05:49:18.203Z,16
2017-10-18T05:49:58.656Z,16
2017-10-18T05:50:39.117Z,20
2017-10-18T05:51:19.567Z,20
2017-10-18T05:52:00.030Z,20
2017-10-18T05:52:40.485Z,20
2017-10-18T05:53:20.947Z,24
2017-10-18T05:54:01.389Z,24
2017-10-18T05:54:41.848Z,28
2017-10-18T05:55:22.298Z,28
2017-10-18T05:56:02.755Z,28
2017-10-18T05:56:43.207Z,28
2017-10-18T05:57:23.657Z,32
2017-10-18T05:58:04.114Z,32
2017-10-18T05:58:44.571Z,36
2017-10-18T05:59:25.021Z,40
2017-10-18T06:00:05.485Z,40
2017-10-18T06:00:45.936Z,44
2017-10-18T06:01:26.382Z,48
2017-10-18T06:02:06.831Z,52
2017-10-18T06:02:47.288Z,52
2017-10-18T06:03:27.741Z,56
2017-10-18T06:04:08.189Z,60
2017-10-18T06:04:48.652Z,64
2017-10-18T06:05:29.115Z,64
2017-10-18T06:06:09.569Z,68
2017-10-18T06:06:50.031Z,72
2017-10-18T06:07:30.490Z,76
2017-10-18T06:08:10.927Z,80
2017-10-18T06:08:51.383Z,84
2017-10-18T06:09:31.847Z,84
2017-10-18T06:10:12.303Z,92
2017-10-18T06:10:52.741Z,92
2017-10-18T06:11:33.202Z,96
2017-10-18T06:12:13.653Z,104
2017-10-18T06:12:54.116Z,108
2017-10-18T06:13:34.568Z,108
2017-10-18T06:14:15.017Z,112
2017-10-18T06:14:55.464Z,116
2017-10-18T06:15:35.916Z,120
2017-10-18T06:16:16.388Z,124
2017-10-18T06:16:56.837Z,128
2017-10-18T06:17:37.296Z,132
2017-10-18T06:18:17.743Z,136
2017-10-18T06:18:58.203Z,140
2017-10-18T06:19:38.663Z,144
2017-10-18T06:20:19.125Z,152
2017-10-18T06:20:59.583Z,156
2017-10-18T06:21:40.033Z,160
2017-10-18T06:22:20.475Z,164
2017-10-18T06:23:00.931Z,172
2017-10-18T06:23:41.389Z,176
2017-10-18T06:24:21.850Z,184
2017-10-18T06:25:02.319Z,184
2017-10-18T06:25:42.763Z,192
2017-10-18T06:26:23.213Z,200
2017-10-18T06:27:03.689Z,204
2017-10-18T06:27:44.126Z,212
2017-10-18T06:28:24.568Z,216
2017-10-18T06:29:05.027Z,220
2017-10-18T06:29:45.489Z,228
2017-10-18T06:30:25.940Z,232
2017-10-18T06:31:06.414Z,236
2017-10-18T06:31:46.864Z,244
2017-10-18T06:32:27.317Z,248
2017-10-18T06:33:07.759Z,252
2017-10-18T06:33:48.200Z,264
2017-10-18T06:34:28.658Z,276
2017-10-18T06:35:09.115Z,288
2017-10-18T06:35:49.569Z,316
2017-10-18T06:36:30.019Z,332
2017-10-18T06:37:10.482Z,340
2017-10-18T06:37:50.948Z,348
2017-10-18T06:38:31.408Z,336
2017-10-18T06:39:11.855Z,348
2017-10-18T06:39:52.308Z,376
2017-10-18T06:40:32.743Z,384
2017-10-18T06:41:13.205Z,408
2017-10-18T06:41:53.663Z,432
2017-10-18T06:42:34.122Z,436
2017-10-18T06:43:14.582Z,432
2017-10-18T06:43:55.046Z,432
2017-10-18T06:44:35.511Z,416
2017-10-18T06:45:15.971Z,384
2017-10-18T06:45:56.394Z,400
2017-10-18T06:46:36.854Z,416
2017-10-18T06:47:17.311Z,420
2017-10-18T06:47:57.766Z,420
2017-10-18T06:48:38.218Z,436
2017-10-18T06:49:18.678Z,456
2017-10-18T06:49:59.124Z,476
2017-10-18T06:50:39.577Z,472
2017-10-18T06:51:20.021Z,464
2017-10-18T06:52:00.476Z,488
2017-10-18T06:52:40.939Z,496
2017-10-18T06:53:21.379Z,504
2017-10-18T06:54:01.826Z,532
2017-10-18T06:54:42.289Z,544
2017-10-18T06:55:22.750Z,556
2017-10-18T06:56:03.207Z,592
2017-10-18T06:56:43.677Z,676
2017-10-18T06:57:24.132Z,672
2017-10-18T06:58:04.586Z,680
2017-10-18T06:58:45.035Z,684
2017-10-18T06:59:25.480Z,752
2017-10-18T07:00:05.934Z,780
2017-10-18T07:00:46.397Z,696
2017-10-18T07:01:26.848Z,844
2017-10-18T07:02:07.308Z,1012
2017-10-18T07:02:47.765Z,1052
2017-10-18T07:03:28.229Z,1020
2017-10-18T07:04:08.695Z,956
2017-10-18T07:04:49.152Z,1008
2017-10-18T07:05:29.607Z,1184
2017-10-18T07:06:10.063Z,1320
2017-10-18T07:06:50.516Z,1472
2017-10-18T07:07:30.968Z,1660
2017-10-18T07:08:11.423Z,2040
2017-10-18T07:08:51.877Z,2260
2017-10-18T07:09:32.341Z,2368
2017-10-18T07:10:12.785Z,2208
2017-10-18T07:10:53.235Z,2360
2017-10-18T07:11:33.699Z,2532
2017-10-18T07:12:14.140Z,2676
2017-10-18T07:12:54.593Z,2784
2017-10-18T07:13:35.060Z,2856
2017-10-18T07:14:15.504Z,3088
2017-10-18T07:14:55.965Z,3336
2017-10-18T07:15:36.433Z,3256
2017-10-18T07:16:16.887Z,2416
2017-10-18T07:16:57.350Z,3140
2017-10-18T07:17:37.799Z,3008
2017-10-18T07:18:18.260Z,2816
2017-10-18T07:18:58.737Z,2876
2017-10-18T07:19:39.198Z,3272
2017-10-18T07:20:19.648Z,3404
2017-10-18T07:21:00.092Z,3356
2017-10-18T07:21:40.546Z,2940
2017-10-18T07:22:20.992Z,3404
2017-10-18T07:23:01.467Z,3524
2017-10-18T07:23:41.904Z,3664
2017-10-18T07:24:22.341Z,3732
2017-10-18T07:25:02.799Z,3796
2017-10-18T07:25:43.311Z,3840
2017-10-18T07:26:23.753Z,3692
2017-10-18T07:27:04.203Z,3708
2017-10-18T07:27:44.656Z,3496
2017-10-18T07:28:25.110Z,3248
2017-10-18T07:29:05.551Z,3332
2017-10-18T07:29:46.008Z,3076
2017-10-18T07:30:26.456Z,2760
2017-10-18T07:31:06.919Z,2908
2017-10-18T07:31:47.374Z,2972
2017-10-18T07:32:27.819Z,3268
2017-10-18T07:33:08.281Z,3028
2017-10-18T07:33:48.733Z,3152
2017-10-18T07:34:29.178Z,2824
2017-10-18T07:35:10.053Z,2924
2017-10-18T07:35:50.540Z,2944
2017-10-18T07:36:31.019Z,3092
2017-10-18T07:37:11.462Z,2956
2017-10-18T07:37:51.909Z,3180
2017-10-18T07:38:32.365Z,3252
2017-10-18T07:39:12.815Z,3328
2017-10-18T07:39:53.268Z,3344
2017-10-18T07:40:33.740Z,3476
2017-10-18T07:41:14.191Z,3520
2017-10-18T07:41:54.644Z,4008
2017-10-18T07:42:35.092Z,4092
2017-10-18T07:43:15.544Z,3936
2017-10-18T07:43:56.020Z,3996
2017-10-18T07:44:36.486Z,3856
2017-10-18T07:45:16.945Z,3800
2017-10-18T07:45:57.393Z,3284
2017-10-18T07:46:37.856Z,2176
2017-10-18T07:47:18.312Z,2240
2017-10-18T07:47:58.767Z,2372
2017-10-18T07:48:39.219Z,3044
2017-10-18T07:49:19.676Z,4328
2017-10-18T07:50:00.146Z,4528
2017-10-18T07:50:40.601Z,4388
2017-10-18T07:51:21.063Z,4084
2017-10-18T07:52:01.522Z,4620
2017-10-18T07:52:41.984Z,5124
2017-10-18T07:53:22.426Z,5904
2017-10-18T07:54:02.883Z,5796
2017-10-18T07:54:43.347Z,5156
2017-10-18T07:55:23.807Z,6012
2017-10-18T07:56:04.269Z,5304
2017-10-18T07:56:44.732Z,5044
2017-10-18T07:57:25.186Z,5976
2017-10-18T07:58:05.632Z,5988
2017-10-18T07:58:46.093Z,5872
2017-10-18T07:59:26.527Z,5992
2017-10-18T08:00:06.962Z,5980
2017-10-18T08:00:47.412Z,5988
2017-10-18T08:01:27.861Z,5604
2017-10-18T08:02:08.310Z,4436
2017-10-18T08:02:48.772Z,3996
2017-10-18T08:03:29.226Z,4736
2017-10-18T08:04:09.683Z,4284
2017-10-18T08:04:50.142Z,4244
2017-10-18T08:05:30.607Z,3328
2017-10-18T08:06:11.067Z,3528
2017-10-18T08:06:51.523Z,3892
2017-10-18T08:07:31.965Z,4064
2017-10-18T08:08:12.480Z,4360
2017-10-18T08:08:52.941Z,3504
2017-10-18T08:09:33.387Z,4052
2017-10-18T08:10:13.841Z,4424
2017-10-18T08:10:54.317Z,5036
2017-10-18T08:11:34.787Z,4624
2017-10-18T08:12:15.245Z,4440
2017-10-18T08:12:55.705Z,4924
2017-10-18T08:13:36.152Z,4716
2017-10-18T08:14:16.634Z,3820
2017-10-18T08:14:57.094Z,3628
2017-10-18T08:15:37.549Z,3860
2017-10-18T08:16:18.047Z,4332
2017-10-18T08:16:58.758Z,4664
2017-10-18T08:17:38.956Z,5364
2017-10-18T08:18:19.421Z,5468
2017-10-18T08:18:59.879Z,5424
2017-10-18T08:19:40.360Z,5292
2017-10-18T08:20:20.795Z,5100
2017-10-18T08:21:01.244Z,5256
2017-10-18T08:21:41.693Z,5500
2017-10-18T08:22:22.150Z,5544
2017-10-18T08:23:02.609Z,5552
2017-10-18T08:23:43.078Z,5544
2017-10-18T08:24:23.531Z,5556
2017-10-18T08:25:04.000Z,5584
2017-10-18T08:25:44.456Z,5588
2017-10-18T08:26:24.900Z,5560
2017-10-18T08:27:05.349Z,5552
2017-10-18T08:27:45.803Z,5576
2017-10-18T08:28:26.263Z,5588
2017-10-18T08:29:06.727Z,5640
2017-10-18T08:29:47.181Z,5676
2017-10-18T08:30:27.651Z,5760
2017-10-18T08:31:08.111Z,5808
2017-10-18T08:31:48.589Z,5844
2017-10-18T08:32:29.024Z,5872
2017-10-18T08:33:09.509Z,5900
2017-10-18T08:33:49.940Z,5956
2017-10-18T08:34:30.390Z,5988
2017-10-18T08:35:10.842Z,5636
2017-10-18T08:35:51.300Z,5032
2017-10-18T08:36:31.735Z,4028
2017-10-18T08:37:12.198Z,4064
2017-10-18T08:37:52.656Z,3428
2017-10-18T08:38:33.105Z,5320
2017-10-18T08:39:13.760Z,5356
2017-10-18T08:39:54.219Z,5176
2017-10-18T08:40:34.878Z,4980
2017-10-18T08:41:15.277Z,4736
2017-10-18T08:41:55.823Z,4948
2017-10-18T08:42:36.227Z,5116
2017-10-18T08:43:16.680Z,5048
2017-10-18T08:43:57.144Z,4948
2017-10-18T08:44:37.602Z,4908
2017-10-18T08:45:18.055Z,4556
2017-10-18T08:45:58.510Z,4552
2017-10-18T08:46:39.108Z,4808
2017-10-18T08:47:19.562Z,5148
2017-10-18T08:48:00.017Z,5240
2017-10-18T08:48:40.471Z,5360
2017-10-18T08:49:20.919Z,5304
2017-10-18T08:50:01.363Z,5388
2017-10-18T08:50:41.820Z,5528
2017-10-18T08:51:22.269Z,4656
2017-10-18T08:52:02.737Z,4940
2017-10-18T08:52:43.186Z,4872
2017-10-18T08:53:23.678Z,5032
2017-10-18T08:54:04.126Z,5112
2017-10-18T08:54:44.577Z,5268
2017-10-18T08:55:25.041Z,5428
2017-10-18T08:56:05.497Z,5396
2017-10-18T08:56:45.951Z,4500
2017-10-18T08:57:26.416Z,4936
2017-10-18T08:58:06.870Z,4884
2017-10-18T08:58:47.327Z,4476
2017-10-18T08:59:27.781Z,3692
2017-10-18T09:00:08.247Z,3388
2017-10-18T09:00:48.708Z,5156
2017-10-18T09:01:29.160Z,5808
2017-10-18T09:02:09.613Z,5680
2017-10-18T09:02:50.060Z,5688
2017-10-18T09:03:30.548Z,5604
2017-10-18T09:04:10.988Z,5560
2017-10-18T09:04:51.443Z,5572
2017-10-18T09:05:31.898Z,5440
2017-10-18T09:06:12.346Z,5472
2017-10-18T09:06:52.795Z,4848
2017-10-18T09:07:33.255Z,4968
2017-10-18T09:08:13.712Z,5116
2017-10-18T09:08:54.172Z,4912
2017-10-18T09:09:34.636Z,5152
2017-10-18T09:10:15.089Z,5320
2017-10-18T09:10:55.565Z,4180
2017-10-18T09:11:35.990Z,3952
2017-10-18T09:12:16.445Z,3484
2017-10-18T09:12:56.899Z,4080
2017-10-18T09:13:37.357Z,3760
2017-10-18T09:14:17.811Z,3784
2017-10-18T09:14:58.288Z,3624
2017-10-18T09:15:38.723Z,4424
2017-10-18T09:16:19.177Z,4696
2017-10-18T09:16:59.634Z,4212
2017-10-18T09:17:40.084Z,3704
2017-10-18T09:18:20.554Z,2996
2017-10-18T09:19:01.008Z,2380
2017-10-18T09:19:41.464Z,3088
2017-10-18T09:20:21.920Z,2988
2017-10-18T09:21:02.371Z,2916
2017-10-18T09:21:42.833Z,3612
2017-10-18T09:22:23.277Z,4220
2017-10-18T09:23:03.726Z,3968
2017-10-18T09:23:44.372Z,3556
2017-10-18T09:24:24.701Z,2980
2017-10-18T09:25:05.162Z,2740
2017-10-18T09:25:45.597Z,3360
2017-10-18T09:26:26.051Z,3704
2017-10-18T09:27:06.482Z,3268
2017-10-18T09:27:46.935Z,3156
2017-10-18T09:28:27.379Z,3524
2017-10-18T09:29:07.831Z,3696
2017-10-18T09:29:48.286Z,3932
2017-10-18T09:30:28.730Z,4064
2017-10-18T09:31:09.184Z,4076
2017-10-18T09:31:49.638Z,3904
2017-10-18T09:32:30.106Z,4244
2017-10-18T09:33:10.557Z,4644
2017-10-18T09:33:51.027Z,4512
2017-10-18T09:34:31.472Z,4456
2017-10-18T09:35:11.932Z,4524
2017-10-18T09:35:52.393Z,4080